createdAt,value
2023-05-19T00:05:50.290Z,9.3
2023-05-19T00:15:52.370Z,9.1
2023-05-19T00:25:54.516Z,8.9
2023-05-19T00:35:57.126Z,8.9
2023-05-19T00:45:58.904Z,8.8
2023-05-19T00:56:00.664Z,8.6
2023-05-19T01:06:03.361Z,8.4
2023-05-19T01:16:05.116Z,8.2
2023-05-19T01:26:07.170Z,8
2023-05-19T01:36:09.264Z,7.9
2023-05-19T01:46:11.163Z,7.7
2023-05-19T01:56:13.486Z,7.6
2023-05-19T02:06:16.127Z,7.5
2023-05-19T02:16:17.982Z,7.5
2023-05-19T02:26:20.525Z,7.4
2023-05-19T02:36:22.715Z,7.3
2023-05-19T02:46:24.963Z,6.9
2023-05-19T02:56:26.839Z,6.9
2023-05-19T03:06:28.861Z,6.9
2023-05-19T03:16:30.896Z,7
2023-05-19T03:26:32.914Z,6.9
2023-05-19T03:36:35.015Z,6.7
2023-05-19T03:46:37.443Z,6.4
2023-05-19T03:56:39.298Z,6.5
2023-05-19T04:06:41.415Z,6.6
2023-05-19T04:16:43.424Z,6.8
2023-05-19T04:26:45.617Z,7
2023-05-19T04:36:48.048Z,7.1
2023-05-19T04:56:52.344Z,7.5
2023-05-19T05:06:54.843Z,7.8
2023-05-19T05:16:56.722Z,8.1
2023-05-19T05:26:58.767Z,8.3
2023-05-19T05:37:00.778Z,8.6
2023-05-19T05:47:03.101Z,8.9
2023-05-19T05:57:05.126Z,9.2
2023-05-19T06:07:07.251Z,9.8
2023-05-19T06:17:09.868Z,10.1
2023-05-19T06:27:12.174Z,10.4
2023-05-19T06:37:13.922Z,11.1
2023-05-19T06:47:16.242Z,11.2
2023-05-19T06:57:18.283Z,11.9
2023-05-19T07:07:20.895Z,12.5
2023-05-19T07:17:23.297Z,12.5
2023-05-19T07:27:25.015Z,13.1
2023-05-19T07:47:28.958Z,14.1
2023-05-19T07:57:31.100Z,14.5
2023-05-19T08:07:32.957Z,15
2023-05-19T08:17:34.699Z,15.1
2023-05-19T08:27:36.965Z,16.1
2023-05-19T08:37:39.332Z,16.6
2023-05-19T08:57:44.294Z,16.6
2023-05-19T09:07:46.786Z,15.9
2023-05-19T09:17:48.699Z,16.8
2023-05-19T09:37:52.513Z,17.4
2023-05-19T09:47:54.317Z,17.6
2023-05-19T09:57:56.966Z,17.3
2023-05-19T10:07:59.144Z,17.7
2023-05-19T10:18:01.683Z,18
2023-05-19T10:28:03.697Z,17.4
2023-05-19T10:38:05.764Z,18.1
2023-05-19T11:08:12.199Z,18
2023-05-19T11:18:14.340Z,18.6
2023-05-19T11:28:38.620Z,18.9
2023-05-19T11:38:26.099Z,18.6
2023-05-19T11:48:28.633Z,18.8
2023-05-19T11:58:30.308Z,19.9
2023-05-19T12:08:32.177Z,19.7
2023-05-19T12:18:34.335Z,19.6
2023-05-19T12:38:38.324Z,19.6
2023-05-19T12:48:40.371Z,19.8
2023-05-19T12:58:42.898Z,19.6
2023-05-19T13:08:45.216Z,19.9
2023-05-19T13:18:47.589Z,20.3
2023-05-19T13:28:49.538Z,19.8
2023-05-19T13:38:51.725Z,20.2
2023-05-19T13:48:54.169Z,20
2023-05-19T13:58:56.187Z,20.4
2023-05-19T14:08:57.842Z,20
2023-05-19T14:19:00.426Z,20
2023-05-19T14:29:03.043Z,20.3
2023-05-19T14:49:06.868Z,19.2
2023-05-19T15:29:14.846Z,19.8
2023-05-19T15:39:16.604Z,20.4
2023-05-19T15:59:21.276Z,19.5
2023-05-19T16:09:23.206Z,19.7
2023-05-19T16:29:26.910Z,19.3
2023-05-19T16:39:28.922Z,19.2
2023-05-19T16:49:31.376Z,19.1
2023-05-19T16:59:33.567Z,19.2
2023-05-19T17:19:37.704Z,18.9
2023-05-19T17:29:39.687Z,18.8
2023-05-19T17:39:41.883Z,18.6
2023-05-19T17:49:43.663Z,18.6
2023-05-19T17:59:45.441Z,18.6
2023-05-19T18:09:47.691Z,18.3
2023-05-19T18:19:49.669Z,18.2
2023-05-19T18:29:51.572Z,18.1
2023-05-19T18:39:53.879Z,17.9
2023-05-19T18:49:56.110Z,17.6
2023-05-19T19:10:00.481Z,17.2
2023-05-19T19:20:02.325Z,16.9
2023-05-19T19:30:04.375Z,16.7
2023-05-19T19:40:06.677Z,16.5
2023-05-19T20:00:10.995Z,16
2023-05-19T20:20:15.210Z,15.5
2023-05-19T20:40:19.478Z,15.1
2023-05-19T22:10:39.147Z,14.5
2023-05-19T22:20:41.373Z,14.5
2023-05-19T22:30:43.338Z,14.5
2023-05-19T22:40:45.542Z,14.4
2023-05-19T22:50:47.175Z,14.3
2023-05-19T23:00:48.868Z,14.1
2023-05-19T23:20:53.151Z,13.8
2023-05-19T23:50:59.441Z,13.2
